You are not logged in, Click here to log in
ICAO: RCFN Country: 臺灣臺東縣臺東市
Latitude: 22.7571 Longitude: 121.106
Total Arrivals: 33 Total Departures: 44
Latest Arrival: FS08 (RCYU-RCFN)CHANG SHENG. HSIUNG Latest Departure: B78726 (RCFN-RCSS)CHU. CHUHAO
Scenery:
METAR : RCFN 241120Z 34003KT 290V030 7000 -RA FEW015 BKN050 22/22 Q1014 NOSIG RMK A2996

臺東機場TTT